sensor_id;sensor_type;location;lat;lon;timestamp;temperature;humidity
19110;DHT22;9687;50.836;12.060;2023-04-01T01:24:31;12.60;92.20
19110;DHT22;9687;50.836;12.060;2023-04-01T01:27:01;12.60;92.20
19110;DHT22;9687;50.836;12.060;2023-04-01T01:29:41;12.60;92.10
19110;DHT22;9687;50.836;12.060;2023-04-01T01:32:11;12.60;92.00
19110;DHT22;9687;50.836;12.060;2023-04-01T01:34:46;12.60;92.00
19110;DHT22;9687;50.836;12.060;2023-04-01T01:37:18;12.60;92.00
19110;DHT22;9687;50.836;12.060;2023-04-01T01:39:52;12.60;92.00
19110;DHT22;9687;50.836;12.060;2023-04-01T01:42:21;12.60;92.00
19110;DHT22;9687;50.836;12.060;2023-04-01T01:44:51;12.60;92.00
19110;DHT22;9687;50.836;12.060;2023-04-01T01:47:19;12.60;92.00
19110;DHT22;9687;50.836;12.060;2023-04-01T01:49:48;12.50;92.00
19110;DHT22;9687;50.836;12.060;2023-04-01T01:52:17;12.50;92.30
19110;DHT22;9687;50.836;12.060;2023-04-01T01:54:48;12.50;92.00
19110;DHT22;9687;50.836;12.060;2023-04-01T01:57:17;12.30;91.80
19110;DHT22;9687;50.836;12.060;2023-04-01T01:59:46;12.50;92.00
19110;DHT22;9687;50.836;12.060;2023-04-01T02:02:15;12.50;92.00
19110;DHT22;9687;50.836;12.060;2023-04-01T02:04:44;12.60;92.00
19110;DHT22;9687;50.836;12.060;2023-04-01T02:07:13;12.50;92.00
19110;DHT22;9687;50.836;12.060;2023-04-01T02:09:44;12.50;92.00
19110;DHT22;9687;50.836;12.060;2023-04-01T02:12:12;12.50;92.00
19110;DHT22;9687;50.836;12.060;2023-04-01T02:14:43;12.50;92.00
19110;DHT22;9687;50.836;12.060;2023-04-01T02:17:13;12.50;92.00
19110;DHT22;9687;50.836;12.060;2023-04-01T02:19:43;12.50;92.00
19110;DHT22;9687;50.836;12.060;2023-04-01T02:22:13;12.50;92.00
19110;DHT22;9687;50.836;12.060;2023-04-01T03:25:39;12.50;91.30
19110;DHT22;9687;50.836;12.060;2023-04-01T03:28:07;12.50;91.20
19110;DHT22;9687;50.836;12.060;2023-04-01T03:30:34;12.50;91.20
19110;DHT22;9687;50.836;12.060;2023-04-01T03:33:02;12.50;91.20
19110;DHT22;9687;50.836;12.060;2023-04-01T03:35:29;12.50;91.20
19110;DHT22;9687;50.836;12.060;2023-04-01T03:37:56;12.50;91.20
19110;DHT22;9687;50.836;12.060;2023-04-01T03:40:24;12.50;91.10
19110;DHT22;9687;50.836;12.060;2023-04-01T03:42:53;12.50;91.10
19110;DHT22;9687;50.836;12.060;2023-04-01T03:45:22;12.60;91.10
19110;DHT22;9687;50.836;12.060;2023-04-01T03:47:49;12.60;91.10
19110;DHT22;9687;50.836;12.060;2023-04-01T03:50:16;12.50;91.00
19110;DHT22;9687;50.836;12.060;2023-04-01T03:52:43;12.50;91.00
19110;DHT22;9687;50.836;12.060;2023-04-01T03:55:11;12.50;90.70
19110;DHT22;9687;50.836;12.060;2023-04-01T03:57:38;12.50;91.00
19110;DHT22;9687;50.836;12.060;2023-04-01T04:00:07;12.50;91.00
19110;DHT22;9687;50.836;12.060;2023-04-01T04:02:35;12.50;91.00
19110;DHT22;9687;50.836;12.060;2023-04-01T04:05:03;12.40;90.90
19110;DHT22;9687;50.836;12.060;2023-04-01T04:07:30;12.40;91.30
19110;DHT22;9687;50.836;12.060;2023-04-01T04:09:57;12.40;90.90
19110;DHT22;9687;50.836;12.060;2023-04-01T04:12:24;12.40;90.90
19110;DHT22;9687;50.836;12.060;2023-04-01T04:14:51;12.40;90.90
19110;DHT22;9687;50.836;12.060;2023-04-01T04:17:20;12.40;90.90
19110;DHT22;9687;50.836;12.060;2023-04-01T04:19:47;12.40;90.90
19110;DHT22;9687;50.836;12.060;2023-04-01T04:22:14;12.40;90.90
19110;DHT22;9687;50.836;12.060;2023-04-01T04:24:41;12.40;90.90
19110;DHT22;9687;50.836;12.060;2023-04-01T06:26:06;12.60;90.10
19110;DHT22;9687;50.836;12.060;2023-04-01T06:28:43;12.60;90.20
19110;DHT22;9687;50.836;12.060;2023-04-01T06:31:18;12.70;90.20
19110;DHT22;9687;50.836;12.060;2023-04-01T06:33:51;12.70;90.20
19110;DHT22;9687;50.836;12.060;2023-04-01T06:36:26;12.70;90.20
19110;DHT22;9687;50.836;12.060;2023-04-01T06:41:56;12.70;90.10
19110;DHT22;9687;50.836;12.060;2023-04-01T06:44:27;12.70;90.10
19110;DHT22;9687;50.836;12.060;2023-04-01T06:46:59;12.70;90.20
19110;DHT22;9687;50.836;12.060;2023-04-01T06:49:31;12.70;90.10
19110;DHT22;9687;50.836;12.060;2023-04-01T06:52:02;12.70;90.10
19110;DHT22;9687;50.836;12.060;2023-04-01T06:54:31;12.70;90.20
19110;DHT22;9687;50.836;12.060;2023-04-01T06:57:02;12.70;90.20
19110;DHT22;9687;50.836;12.060;2023-04-01T06:59:32;12.70;90.20
19110;DHT22;9687;50.836;12.060;2023-04-01T07:02:01;12.70;90.20
19110;DHT22;9687;50.836;12.060;2023-04-01T07:04:33;12.70;90.20
19110;DHT22;9687;50.836;12.060;2023-04-01T07:07:01;12.70;90.10
19110;DHT22;9687;50.836;12.060;2023-04-01T07:09:31;12.70;90.20
19110;DHT22;9687;50.836;12.060;2023-04-01T07:12:01;12.80;90.20
19110;DHT22;9687;50.836;12.060;2023-04-01T07:14:32;12.80;90.20
19110;DHT22;9687;50.836;12.060;2023-04-01T07:17:00;12.80;90.30
19110;DHT22;9687;50.836;12.060;2023-04-01T07:19:33;12.80;90.40
19110;DHT22;9687;50.836;12.060;2023-04-01T07:22:03;12.80;90.50
19110;DHT22;9687;50.836;12.060;2023-04-01T07:24:32;12.80;90.50
19110;DHT22;9687;50.836;12.060;2023-04-01T07:52:01;13.00;90.80
19110;DHT22;9687;50.836;12.060;2023-04-01T07:54:34;13.00;90.60
19110;DHT22;9687;50.836;12.060;2023-04-01T07:57:06;13.10;90.70
19110;DHT22;9687;50.836;12.060;2023-04-01T07:59:37;13.10;90.60
19110;DHT22;9687;50.836;12.060;2023-04-01T08:02:10;13.20;90.70
19110;DHT22;9687;50.836;12.060;2023-04-01T08:04:45;13.20;90.40
19110;DHT22;9687;50.836;12.060;2023-04-01T08:07:17;13.30;90.30
19110;DHT22;9687;50.836;12.060;2023-04-01T08:09:46;13.30;90.10
19110;DHT22;9687;50.836;12.060;2023-04-01T08:12:21;13.40;90.00
19110;DHT22;9687;50.836;12.060;2023-04-01T08:14:56;13.40;89.40
19110;DHT22;9687;50.836;12.060;2023-04-01T08:17:26;13.40;89.10
19110;DHT22;9687;50.836;12.060;2023-04-01T08:19:58;13.40;89.10
19110;DHT22;9687;50.836;12.060;2023-04-01T08:22:29;13.50;88.70
19110;DHT22;9687;50.836;12.060;2023-04-01T08:24:58;13.50;88.70
19110;DHT22;9687;50.836;12.060;2023-04-01T08:27:31;13.50;88.00
19110;DHT22;9687;50.836;12.060;2023-04-01T08:30:02;13.50;87.90
19110;DHT22;9687;50.836;12.060;2023-04-01T08:32:30;13.60;88.00
19110;DHT22;9687;50.836;12.060;2023-04-01T08:35:02;13.60;88.20
19110;DHT22;9687;50.836;12.060;2023-04-01T08:37:36;13.60;87.90
19110;DHT22;9687;50.836;12.060;2023-04-01T08:40:11;13.60;87.70
19110;DHT22;9687;50.836;12.060;2023-04-01T08:42:46;13.70;87.80
19110;DHT22;9687;50.836;12.060;2023-04-01T08:45:22;13.70;87.70
19110;DHT22;9687;50.836;12.060;2023-04-01T08:47:56;13.70;87.60
19110;DHT22;9687;50.836;12.060;2023-04-01T08:53:18;13.80;87.20
19110;DHT22;9687;50.836;12.060;2023-04-01T08:55:51;13.80;86.80
19110;DHT22;9687;50.836;12.060;2023-04-01T09:01:11;13.80;86.60
19110;DHT22;9687;50.836;12.060;2023-04-01T09:06:31;13.80;86.30
19110;DHT22;9687;50.836;12.060;2023-04-01T09:09:05;13.70;86.30
19110;DHT22;9687;50.836;12.060;2023-04-01T09:11:44;13.80;86.00
19110;DHT22;9687;50.836;12.060;2023-04-01T09:20:01;13.80;85.70
19110;DHT22;9687;50.836;12.060;2023-04-01T09:22:39;13.70;84.90
19110;DHT22;9687;50.836;12.060;2023-04-01T09:25:22;13.80;85.30
19110;DHT22;9687;50.836;12.060;2023-04-01T09:27:54;13.80;85.30
19110;DHT22;9687;50.836;12.060;2023-04-01T09:30:33;13.80;85.50
19110;DHT22;9687;50.836;12.060;2023-04-01T09:35:46;13.80;85.60
19110;DHT22;9687;50.836;12.060;2023-04-01T09:38:20;13.90;85.70
19110;DHT22;9687;50.836;12.060;2023-04-01T09:40:57;13.90;85.50
19110;DHT22;9687;50.836;12.060;2023-04-01T09:43:26;14.00;85.20
19110;DHT22;9687;50.836;12.060;2023-04-01T09:45:58;14.00;85.20
19110;DHT22;9687;50.836;12.060;2023-04-01T09:48:36;14.00;85.20
19110;DHT22;9687;50.836;12.060;2023-04-01T09:51:10;14.00;85.20
19110;DHT22;9687;50.836;12.060;2023-04-01T09:53:46;14.00;84.90
19110;DHT22;9687;50.836;12.060;2023-04-01T09:56:42;14.00;85.20
19110;DHT22;9687;50.836;12.060;2023-04-01T10:02:13;14.00;84.70
19110;DHT22;9687;50.836;12.060;2023-04-01T10:04:51;14.00;85.00
19110;DHT22;9687;50.836;12.060;2023-04-01T10:07:38;14.00;84.10
19110;DHT22;9687;50.836;12.060;2023-04-01T10:10:34;14.00;84.30
19110;DHT22;9687;50.836;12.060;2023-04-01T10:21:33;14.10;83.80
19110;DHT22;9687;50.836;12.060;2023-04-01T10:24:12;14.10;83.70
19110;DHT22;9687;50.836;12.060;2023-04-01T10:26:54;14.20;83.50
19110;DHT22;9687;50.836;12.060;2023-04-01T10:37:59;14.60;82.80
19110;DHT22;9687;50.836;12.060;2023-04-01T10:40:38;14.60;82.90
19110;DHT22;9687;50.836;12.060;2023-04-01T10:51:46;14.80;82.30
19110;DHT22;9687;50.836;12.060;2023-04-01T10:57:23;14.80;81.80
19110;DHT22;9687;50.836;12.060;2023-04-01T11:00:08;14.80;82.10
19110;DHT22;9687;50.836;12.060;2023-04-01T11:05:46;14.80;82.30
19110;DHT22;9687;50.836;12.060;2023-04-01T11:14:16;14.60;82.10
19110;DHT22;9687;50.836;12.060;2023-04-01T11:19:51;14.50;82.70
19110;DHT22;9687;50.836;12.060;2023-04-01T11:22:26;14.40;82.90
19110;DHT22;9687;50.836;12.060;2023-04-01T11:25:10;14.40;83.10
19110;DHT22;9687;50.836;12.060;2023-04-01T13:30:09;14.20;87.60
19110;DHT22;9687;50.836;12.060;2023-04-01T13:32:44;14.10;87.70
19110;DHT22;9687;50.836;12.060;2023-04-01T13:35:21;14.20;87.80
19110;DHT22;9687;50.836;12.060;2023-04-01T13:37:52;14.20;87.40
19110;DHT22;9687;50.836;12.060;2023-04-01T13:40:26;14.20;87.00
19110;DHT22;9687;50.836;12.060;2023-04-01T13:42:57;14.20;86.80
19110;DHT22;9687;50.836;12.060;2023-04-01T13:45:26;14.20;86.50
19110;DHT22;9687;50.836;12.060;2023-04-01T13:48:00;14.20;86.20
19110;DHT22;9687;50.836;12.060;2023-04-01T13:50:33;14.20;86.10
19110;DHT22;9687;50.836;12.060;2023-04-01T13:55:53;14.10;86.00
19110;DHT22;9687;50.836;12.060;2023-04-01T14:01:15;14.10;86.40
19110;DHT22;9687;50.836;12.060;2023-04-01T14:06:34;14.20;86.20
19110;DHT22;9687;50.836;12.060;2023-04-01T14:09:10;14.20;86.20
19110;DHT22;9687;50.836;12.060;2023-04-01T14:11:41;14.20;86.20
19110;DHT22;9687;50.836;12.060;2023-04-01T14:14:14;14.30;86.40
19110;DHT22;9687;50.836;12.060;2023-04-01T14:16:57;14.30;86.40
19110;DHT22;9687;50.836;12.060;2023-04-01T14:19:33;14.30;86.70
19110;DHT22;9687;50.836;12.060;2023-04-01T14:22:10;14.30;87.50
19110;DHT22;9687;50.836;12.060;2023-04-01T14:24:44;14.20;87.90
19110;DHT22;9687;50.836;12.060;2023-04-01T14:27:21;14.20;88.50
19110;DHT22;9687;50.836;12.060;2023-04-01T14:29:57;14.20;89.20
19110;DHT22;9687;50.836;12.060;2023-04-01T14:32:31;14.20;90.00
19110;DHT22;9687;50.836;12.060;2023-04-01T14:37:52;14.20;90.30
19110;DHT22;9687;50.836;12.060;2023-04-01T14:40:26;14.20;90.30
19110;DHT22;9687;50.836;12.060;2023-04-01T14:42:55;14.30;90.40
19110;DHT22;9687;50.836;12.060;2023-04-01T14:48:17;14.30;90.40
19110;DHT22;9687;50.836;12.060;2023-04-01T14:50:45;14.30;90.40
19110;DHT22;9687;50.836;12.060;2023-04-01T14:53:16;14.30;90.40
19110;DHT22;9687;50.836;12.060;2023-04-01T14:55:53;14.30;90.40
19110;DHT22;9687;50.836;12.060;2023-04-01T14:58:21;14.20;90.30
19110;DHT22;9687;50.836;12.060;2023-04-01T15:01:05;14.20;90.30
19110;DHT22;9687;50.836;12.060;2023-04-01T15:03:38;14.20;90.30
19110;DHT22;9687;50.836;12.060;2023-04-01T15:06:15;14.20;90.30
19110;DHT22;9687;50.836;12.060;2023-04-01T15:08:49;14.20;90.30
19110;DHT22;9687;50.836;12.060;2023-04-01T15:11:21;14.20;90.30
19110;DHT22;9687;50.836;12.060;2023-04-01T15:13:53;14.20;90.30
19110;DHT22;9687;50.836;12.060;2023-04-01T15:16:24;14.20;90.30
19110;DHT22;9687;50.836;12.060;2023-04-01T15:18:56;14.20;90.30
19110;DHT22;9687;50.836;12.060;2023-04-01T15:21:31;14.20;90.30
19110;DHT22;9687;50.836;12.060;2023-04-01T15:24:06;14.20;90.30
19110;DHT22;9687;50.836;12.060;2023-04-01T15:26:38;14.20;90.30
19110;DHT22;9687;50.836;12.060;2023-04-01T15:29:19;14.20;90.30
19110;DHT22;9687;50.836;12.060;2023-04-01T18:31:47;13.40;95.20
19110;DHT22;9687;50.836;12.060;2023-04-01T18:34:16;13.40;95.30
19110;DHT22;9687;50.836;12.060;2023-04-01T18:36:46;13.30;95.70
19110;DHT22;9687;50.836;12.060;2023-04-01T18:39:16;13.30;95.70
19110;DHT22;9687;50.836;12.060;2023-04-01T18:41:51;13.30;95.50
19110;DHT22;9687;50.836;12.060;2023-04-01T18:44:28;13.30;95.50
19110;DHT22;9687;50.836;12.060;2023-04-01T18:47:03;13.30;95.50
19110;DHT22;9687;50.836;12.060;2023-04-01T18:49:33;13.30;95.50
19110;DHT22;9687;50.836;12.060;2023-04-01T18:52:08;13.30;95.50
19110;DHT22;9687;50.836;12.060;2023-04-01T18:54:40;13.30;95.60
19110;DHT22;9687;50.836;12.060;2023-04-01T18:57:10;13.40;95.70
19110;DHT22;9687;50.836;12.060;2023-04-01T18:59:40;13.30;95.60
19110;DHT22;9687;50.836;12.060;2023-04-01T19:02:16;13.40;95.70
19110;DHT22;9687;50.836;12.060;2023-04-01T19:04:47;13.40;95.70
19110;DHT22;9687;50.836;12.060;2023-04-01T19:07:24;13.40;95.70
19110;DHT22;9687;50.836;12.060;2023-04-01T19:09:58;13.40;95.70
19110;DHT22;9687;50.836;12.060;2023-04-01T19:12:33;13.40;95.80
19110;DHT22;9687;50.836;12.060;2023-04-01T19:15:07;13.40;95.80
19110;DHT22;9687;50.836;12.060;2023-04-01T19:17:41;13.40;95.80
19110;DHT22;9687;50.836;12.060;2023-04-01T19:20:13;13.40;95.80
19110;DHT22;9687;50.836;12.060;2023-04-01T19:22:51;13.40;95.90
19110;DHT22;9687;50.836;12.060;2023-04-01T19:25:23;13.40;95.90
19110;DHT22;9687;50.836;12.060;2023-04-01T19:27:52;13.40;95.90
19110;DHT22;9687;50.836;12.060;2023-04-01T19:30:29;13.40;95.90
19110;DHT22;9687;50.836;12.060;2023-04-01T21:32:08;13.20;97.40
19110;DHT22;9687;50.836;12.060;2023-04-01T21:34:41;13.20;97.40
19110;DHT22;9687;50.836;12.060;2023-04-01T21:37:16;13.20;97.70
19110;DHT22;9687;50.836;12.060;2023-04-01T21:39:53;13.20;97.40
19110;DHT22;9687;50.836;12.060;2023-04-01T21:42:26;13.20;97.40
19110;DHT22;9687;50.836;12.060;2023-04-01T21:45:02;13.20;97.50
19110;DHT22;9687;50.836;12.060;2023-04-01T21:47:55;13.20;97.50
19110;DHT22;9687;50.836;12.060;2023-04-01T21:50:40;13.20;97.50
19110;DHT22;9687;50.836;12.060;2023-04-01T21:53:33;13.20;97.60
19110;DHT22;9687;50.836;12.060;2023-04-01T21:58:59;13.20;97.60
19110;DHT22;9687;50.836;12.060;2023-04-01T22:01:41;13.20;97.70
19110;DHT22;9687;50.836;12.060;2023-04-01T22:04:22;13.10;97.60
19110;DHT22;9687;50.836;12.060;2023-04-01T22:06:56;13.20;97.70
19110;DHT22;9687;50.836;12.060;2023-04-01T22:09:27;13.20;97.70
19110;DHT22;9687;50.836;12.060;2023-04-01T22:11:57;13.00;97.60
19110;DHT22;9687;50.836;12.060;2023-04-01T22:14:31;13.10;97.60
19110;DHT22;9687;50.836;12.060;2023-04-01T22:17:02;13.20;97.60
19110;DHT22;9687;50.836;12.060;2023-04-01T22:19:35;13.10;97.60
19110;DHT22;9687;50.836;12.060;2023-04-01T22:22:08;13.10;97.60
19110;DHT22;9687;50.836;12.060;2023-04-01T22:24:41;13.10;97.60
19110;DHT22;9687;50.836;12.060;2023-04-01T22:27:12;13.10;97.70
19110;DHT22;9687;50.836;12.060;2023-04-01T22:29:45;13.10;97.70
19110;DHT22;9687;50.836;12.060;2023-04-01T23:34:47;13.90;97.90
19110;DHT22;9687;50.836;12.060;2023-04-01T23:37:19;12.60;97.30
19110;DHT22;9687;50.836;12.060;2023-04-01T23:39:53;12.60;97.30
19110;DHT22;9687;50.836;12.060;2023-04-01T23:42:27;12.60;97.20
19110;DHT22;9687;50.836;12.060;2023-04-01T23:45:04;12.60;97.20
19110;DHT22;9687;50.836;12.060;2023-04-01T23:47:35;12.60;97.20
19110;DHT22;9687;50.836;12.060;2023-04-01T23:50:09;12.50;97.10
19110;DHT22;9687;50.836;12.060;2023-04-01T23:52:43;12.50;97.10
19110;DHT22;9687;50.836;12.060;2023-04-01T23:55:18;12.50;97.10
19110;DHT22;9687;50.836;12.060;2023-04-01T23:58:00;12.50;97.10
